Pearl River — WDD7486 — position and weather

sailwx.info

Track history (hours):
 
Tides and Currents Weather Stations Pressure Air Temp Water Temp Dewpoint Dewpoint Depression Visibility Wind Speed Wind Dir Waves Ship Positions

Pearl River

Owner: Great Lakes Dredge & Dock Company, LLC., Oak Brook, IL. More information available from US FCC via Universal Licensing System and Coast Guard Vessel Documentation Center.

Last reported at 2017-Dec-18 03:00 UTC. Time now 2017-Dec-18 03:24 UTC.
Position N 32°01' W 080°53'.

MMSI: 367187120.

Date/timePositionNaut miles runAvg speedWind from/ knotsBaromVisibWave heightAir tempDewpointWater temp
2017-Dec-18 03:00N 32°01' W 080°53'0 0.0
2017-Dec-18 02:30N 32°01' W 080°53'0 0.0
2017-Dec-18 02:01N 32°01' W 080°53'0 0.0
2017-Dec-18 01:31N 32°01' W 080°53'0 0.0
2017-Dec-18 01:00N 32°01' W 080°53'0 0.0
2017-Dec-18 00:31N 32°01' W 080°53'0 0.0
2017-Dec-18 00:01N 32°01' W 080°53'0 0.0
2017-Dec-17 23:30N 32°01' W 080°53'0 0.0
2017-Dec-17 23:00N 32°01' W 080°53'0 0.0
2017-Dec-17 22:31N 32°01' W 080°53'0 0.0
2017-Dec-17 22:00N 32°01' W 080°53'0 0.0
2017-Dec-17 21:30N 32°01' W 080°53'0 0.0
2017-Dec-17 21:00N 32°01' W 080°53'0 0.0
2017-Dec-17 20:30N 32°01' W 080°53'0 0.0
2017-Dec-17 20:00N 32°01' W 080°53'4 8.5
2017-Dec-17 19:30N 32°00' W 080°48'3 5.3
2017-Dec-17 18:59N 31°59' W 080°45'3 6.7
2017-Dec-17 18:30N 31°57' W 080°43'3 1.2
2017-Dec-17 16:19N 31°57' W 080°40'1 1.8
2017-Dec-17 15:57N 31°57' W 080°41'4 8.8
2017-Dec-17 15:30N 31°59' W 080°45'1 0.6
2017-Dec-17 14:30N 31°58' W 080°44'0 0.4
2017-Dec-17 13:54N 31°58' W 080°45'1 2.3
2017-Dec-17 13:31N 31°59' W 080°46'0 0.1
2017-Dec-17 13:00N 31°59' W 080°46'611.5
2017-Dec-17 12:30N 32°02' W 080°51'2 3.4
2017-Dec-17 12:00N 32°01' W 080°53'0 0.0
2017-Dec-17 11:30N 32°01' W 080°53'0 0.0
2017-Dec-17 11:00N 32°01' W 080°53'0 0.0
2017-Dec-17 10:31N 32°01' W 080°53'0 0.0
2017-Dec-17 10:01N 32°01' W 080°53'0 0.0
2017-Dec-17 09:30N 32°01' W 080°53'0 0.0
2017-Dec-17 09:01N 32°01' W 080°53'0 0.0
2017-Dec-17 08:30N 32°01' W 080°53'0 0.0
2017-Dec-17 08:00N 32°01' W 080°53'0 0.0
2017-Dec-17 07:30N 32°01' W 080°53'0 0.0
2017-Dec-17 07:01N 32°01' W 080°53'0 0.0
2017-Dec-17 06:30N 32°01' W 080°53'0 0.0
2017-Dec-17 06:00N 32°01' W 080°53'0 0.0
2017-Dec-17 05:30N 32°01' W 080°53'0 0.0
2017-Dec-17 05:01N 32°01' W 080°53'0 0.0
2017-Dec-17 04:31N 32°01' W 080°53'0 0.0
2017-Dec-17 04:01N 32°01' W 080°53'0 0.0
2017-Dec-17 03:30N 32°01' W 080°53'0 0.0
2017-Dec-17 03:00N 32°01' W 080°53'0 0.0
2017-Dec-17 02:30N 32°01' W 080°53'0 0.0
2017-Dec-17 02:00N 32°01' W 080°53'0 0.0
2017-Dec-17 01:30N 32°01' W 080°53'0 0.0
2017-Dec-17 01:01N 32°01' W 080°53'0 0.0
2017-Dec-17 00:30N 32°01' W 080°53'0 0.0
2017-Dec-17 00:01N 32°01' W 080°53'0 0.0
2017-Dec-16 22:55N 32°01' W 080°53'0 0.0
2017-Dec-16 22:30N 32°01' W 080°53'0 0.0
2017-Dec-16 22:00N 32°01' W 080°53'0 0.0
2017-Dec-16 21:30N 32°01' W 080°53'0 0.0
2017-Dec-16 21:00N 32°01' W 080°53'0 0.0
2017-Dec-16 20:30N 32°01' W 080°53'0 0.0
2017-Dec-16 20:00N 32°01' W 080°53'0 0.0
2017-Dec-16 19:30N 32°01' W 080°53'0 0.0
2017-Dec-16 19:00N 32°01' W 080°53'0 0.0
2017-Dec-16 18:30N 32°01' W 080°53'2 3.6
2017-Dec-16 18:00N 32°02' W 080°51'714.5
2017-Dec-16 17:30N 31°57' W 080°45'0 0.7
2017-Dec-16 16:58N 31°57' W 080°45'0 0.5
2017-Dec-16 16:30N 31°56' W 080°45'3 6.9
2017-Dec-16 16:00N 31°59' W 080°47'713.5
2017-Dec-16 15:31N 32°02' W 080°54'0 0.1
2017-Dec-16 15:01N 32°02' W 080°54'3 5.6
2017-Dec-16 14:30N 32°02' W 080°51'2 4.3
2017-Dec-16 14:00N 32°01' W 080°53'0 0.0
2017-Dec-16 13:30N 32°01' W 080°53'0 0.1
2017-Dec-16 13:00N 32°01' W 080°53'0 0.0
2017-Dec-16 12:00N 32°01' W 080°53'0 0.0
2017-Dec-16 11:31N 32°01' W 080°53'0 0.0
2017-Dec-16 11:01N 32°01' W 080°53'0 0.0
2017-Dec-16 10:31N 32°01' W 080°53'0 0.0
2017-Dec-16 10:00N 32°01' W 080°53'0 0.0
2017-Dec-16 09:30N 32°01' W 080°53'0 0.0
2017-Dec-16 09:01N 32°01' W 080°53'0 0.0
2017-Dec-16 08:31N 32°01' W 080°53'0 0.0
2017-Dec-16 08:01N 32°01' W 080°53'0 0.0
2017-Dec-16 07:31N 32°01' W 080°53'0 0.0
2017-Dec-16 07:01N 32°01' W 080°53'0 0.0
2017-Dec-16 06:31N 32°01' W 080°53'0 0.0
2017-Dec-16 06:01N 32°01' W 080°53'0 0.0
2017-Dec-16 05:31N 32°01' W 080°53'0 0.0
2017-Dec-16 05:01N 32°01' W 080°53'0 0.0
2017-Dec-16 04:31N 32°01' W 080°53'0 0.0
2017-Dec-16 04:01N 32°01' W 080°53'0 0.0
2017-Dec-16 03:31N 32°01' W 080°53'0 0.0
2017-Dec-16 03:01N 32°01' W 080°53'0 0.0
2017-Dec-16 02:30N 32°01' W 080°53'0 0.0
2017-Dec-16 02:00N 32°01' W 080°53'0 0.0
2017-Dec-16 01:30N 32°01' W 080°53'0 0.0
2017-Dec-16 01:00N 32°01' W 080°53'0 0.0
2017-Dec-16 00:31N 32°01' W 080°53'0 0.0
2017-Dec-16 00:01N 32°01' W 080°53'0 0.0
2017-Dec-15 23:31N 32°01' W 080°53'0 0.0
2017-Dec-15 23:00N 32°01' W 080°53'0 0.0
2017-Dec-15 22:30N 32°01' W 080°53'0 0.1
2017-Dec-15 21:58N 32°01' W 080°53'0 0.1
2017-Dec-15 21:30N 32°01' W 080°53'5 9.8
2017-Dec-15 21:00N 31°60' W 080°47'5 1.7
2017-Dec-15 17:57N 31°58' W 080°42'715.2
2017-Dec-15 17:30N 32°01' W 080°48'3 5.5
2017-Dec-15 17:00N 32°02' W 080°51'0 0.0
2017-Dec-15 16:30N 32°02' W 080°51'0 1.0
2017-Dec-15 16:00N 32°02' W 080°52'0 0.7
2017-Dec-15 15:30N 32°02' W 080°51'0 0.3
2017-Dec-15 15:00N 32°02' W 080°52'1 2.6
2017-Dec-15 14:30N 32°02' W 080°50'0 0.4
2017-Dec-15 14:00N 32°02' W 080°50'1 2.4
2017-Dec-15 13:29N 32°02' W 080°51'1 2.4
2017-Dec-15 13:00N 32°02' W 080°53'1 2.6
2017-Dec-15 12:30N 32°01' W 080°53'0 0.0
2017-Dec-15 12:00N 32°01' W 080°53'0 0.0
2017-Dec-15 11:30N 32°01' W 080°53'0 0.0
2017-Dec-15 11:00N 32°01' W 080°53'0 0.0
2017-Dec-15 10:30N 32°01' W 080°53'0 0.0
2017-Dec-15 10:00N 32°01' W 080°53'0 0.0
2017-Dec-15 09:30N 32°01' W 080°53'0 0.0
2017-Dec-15 09:00N 32°01' W 080°53'0 0.0
2017-Dec-15 08:30N 32°01' W 080°53'0 0.0
2017-Dec-15 08:00N 32°01' W 080°53'0 0.0
2017-Dec-15 07:30N 32°01' W 080°53'0 0.0
2017-Dec-15 07:00N 32°01' W 080°53'0 0.0
2017-Dec-15 06:30N 32°01' W 080°53'0 0.0
2017-Dec-15 06:00N 32°01' W 080°53'0 0.0
2017-Dec-15 05:30N 32°01' W 080°53'0 0.0
2017-Dec-15 05:00N 32°01' W 080°53'0 0.0
2017-Dec-15 04:30N 32°01' W 080°53'0 0.0
2017-Dec-15 04:00N 32°01' W 080°53'0 0.0
2017-Dec-15 02:30N 32°01' W 080°53'0 0.0
2017-Dec-15 01:00N 32°01' W 080°53'0 0.0
2017-Dec-15 00:30N 32°01' W 080°53'1 0.2
2017-Dec-14 18:31N 32°01' W 080°52'1 2.2
2017-Dec-14 18:00N 32°01' W 080°53'0 0.0
2017-Dec-14 17:29N 32°01' W 080°53'1 1.2
2017-Dec-14 17:00N 32°01' W 080°52'612.1
2017-Dec-14 16:29N 31°59' W 080°45'1 1.9
2017-Dec-14 15:54N 31°58' W 080°44'1 0.9
2017-Dec-14 15:00N 31°59' W 080°45'0 0.3
2017-Dec-14 14:30N 31°59' W 080°45'0 0.5
2017-Dec-14 13:35N 31°59' W 080°44'0 1.5
2017-Dec-14 13:30N 31°59' W 080°45'0 1.0
2017-Dec-14 13:00N 31°59' W 080°45'5 9.7
2017-Dec-14 12:30N 32°02' W 080°49'3 6.0
2017-Dec-14 12:00N 32°01' W 080°53'2 3.4
2017-Dec-14 11:30N 32°02' W 080°54'2 3.9
2017-Dec-14 11:00N 32°01' W 080°52'1 1.0
2017-Dec-14 10:30N 32°01' W 080°53'0 0.0
2017-Dec-14 10:00N 32°01' W 080°53'0 0.0
2017-Dec-14 09:30N 32°01' W 080°53'0 0.0
2017-Dec-14 09:00N 32°01' W 080°53'0 0.0
2017-Dec-14 08:30N 32°01' W 080°53'0 0.0
2017-Dec-14 08:00N 32°01' W 080°53'0 0.0
2017-Dec-14 07:30N 32°01' W 080°53'0 0.0
2017-Dec-14 07:00N 32°01' W 080°53'0 0.0
2017-Dec-14 06:30N 32°01' W 080°53'0 0.0
2017-Dec-14 06:00N 32°01' W 080°53'0 0.0
2017-Dec-14 05:30N 32°01' W 080°53'0 0.0
2017-Dec-14 05:00N 32°01' W 080°53'0 0.0
2017-Dec-14 04:30N 32°01' W 080°53'0 0.0
2017-Dec-14 04:00N 32°01' W 080°53'0 0.0
2017-Dec-14 03:30N 32°01' W 080°53'0 0.0
2017-Dec-14 03:00N 32°01' W 080°53'0 0.0
2017-Dec-14 02:30N 32°01' W 080°53'0 0.0
2017-Dec-14 02:00N 32°01' W 080°53'0 0.0
2017-Dec-14 01:30N 32°01' W 080°53'0 0.0
2017-Dec-14 01:00N 32°01' W 080°53'0 0.0
2017-Dec-14 00:30N 32°01' W 080°53'0 0.0
2017-Dec-14 00:00N 32°01' W 080°53'0 0.0
2017-Dec-13 23:30N 32°01' W 080°53'0 0.0
2017-Dec-13 23:00N 32°01' W 080°53'0 0.0
2017-Dec-13 22:30N 32°01' W 080°53'0 0.0
2017-Dec-13 22:00N 32°01' W 080°53'2 4.2
2017-Dec-13 21:30N 32°02' W 080°51'6 9.1
2017-Dec-13 20:52N 31°59' W 080°45'3 0.9
2017-Dec-13 17:43N 31°58' W 080°42'416.8
2017-Dec-13 17:30N 31°59' W 080°46'3 5.9
2017-Dec-13 17:00N 32°01' W 080°48'1 1.9
2017-Dec-13 16:29N 32°00' W 080°48'1 1.9
2017-Dec-13 16:00N 32°01' W 080°48'0 0.4
2017-Dec-13 15:30N 32°01' W 080°48'1 1.5
2017-Dec-13 15:00N 32°01' W 080°48'0 0.5
2017-Dec-13 14:30N 32°01' W 080°48'0 0.2
2017-Dec-13 14:00N 32°01' W 080°48'4 8.2
2017-Dec-13 13:30N 32°01' W 080°53'0 0.0
2017-Dec-13 13:01N 32°01' W 080°53'0 0.0
2017-Dec-13 12:31N 32°01' W 080°53'0 0.0
2017-Dec-13 12:00N 32°01' W 080°53'0 0.0
2017-Dec-13 11:30N 32°01' W 080°53'0 0.0
2017-Dec-13 11:00N 32°01' W 080°53'0 0.0
2017-Dec-13 10:30N 32°01' W 080°53'0 0.0
2017-Dec-13 10:00N 32°01' W 080°53'0 0.0
2017-Dec-13 09:30N 32°01' W 080°53'0 0.0
2017-Dec-13 09:00N 32°01' W 080°53'0 0.0
2017-Dec-13 08:30N 32°01' W 080°53'0 0.0
2017-Dec-13 08:00N 32°01' W 080°53'0 0.0
2017-Dec-13 07:30N 32°01' W 080°53'0 0.0
2017-Dec-13 07:00N 32°01' W 080°53'0 0.0
2017-Dec-13 06:30N 32°01' W 080°53'0 0.0
2017-Dec-13 06:00N 32°01' W 080°53'0 0.0
2017-Dec-13 05:30N 32°01' W 080°53'0 0.0
2017-Dec-13 05:00N 32°01' W 080°53'0 0.0
2017-Dec-13 04:30N 32°01' W 080°53'0 0.0
2017-Dec-13 04:00N 32°01' W 080°53'0 0.0
2017-Dec-13 03:30N 32°01' W 080°53'0 0.0
2017-Dec-13 03:00N 32°01' W 080°53'0 0.0
2017-Dec-13 02:30N 32°01' W 080°53'0 0.0
2017-Dec-13 02:00N 32°01' W 080°53'0 0.0
2017-Dec-13 01:30N 32°01' W 080°53'0 0.0
2017-Dec-13 01:00N 32°01' W 080°53'0 0.0
2017-Dec-13 00:30N 32°01' W 080°53'0 0.0
2017-Dec-13 00:00N 32°01' W 080°53'0 0.0
2017-Dec-12 23:30N 32°01' W 080°53'0 0.0
2017-Dec-12 23:00N 32°01' W 080°53'0 0.0
2017-Dec-12 22:30N 32°01' W 080°53'0 0.0
2017-Dec-12 22:00N 32°01' W 080°53'0 0.0
2017-Dec-12 21:31N 32°01' W 080°53'0 0.0
2017-Dec-12 21:01N 32°01' W 080°53'0 0.0
2017-Dec-12 20:31N 32°01' W 080°53'2 3.6
2017-Dec-12 20:00N 32°02' W 080°54'0 0.2
2017-Dec-12 19:30N 32°02' W 080°54'0 0.1
2017-Dec-12 19:00N 32°02' W 080°54'3 5.3
2017-Dec-12 18:31N 32°02' W 080°51'711.1
2017-Dec-12 17:55N 31°57' W 080°46'0 0.3
2017-Dec-12 17:29N 31°57' W 080°47'1 1.0
2017-Dec-12 16:55N 31°56' W 080°47'0 0.3
2017-Dec-12 16:28N 31°56' W 080°46'2 3.2
2017-Dec-12 15:59N 31°56' W 080°45'1 1.2
2017-Dec-12 15:18N 31°56' W 080°46'3 9.2
2017-Dec-12 15:00N 31°59' W 080°47'611.4
2017-Dec-12 14:30N 32°01' W 080°53'0 0.0
2017-Dec-12 14:00N 32°01' W 080°53'1 2.4
2017-Dec-12 13:30N 32°02' W 080°53'1 2.7
2017-Dec-12 13:00N 32°02' W 080°54'2 4.8
2017-Dec-12 12:30N 32°02' W 080°52'2 3.6
2017-Dec-12 12:01N 32°01' W 080°53'0 0.0
2017-Dec-12 11:30N 32°01' W 080°53'0 0.0
2017-Dec-12 11:00N 32°01' W 080°53'0 0.0
2017-Dec-12 10:30N 32°01' W 080°53'0 0.0
2017-Dec-12 10:00N 32°01' W 080°53'0 0.0
2017-Dec-12 09:30N 32°01' W 080°53'0 0.0
2017-Dec-12 09:00N 32°01' W 080°53'0 0.0
2017-Dec-12 08:30N 32°01' W 080°53'0 0.0
2017-Dec-12 08:00N 32°01' W 080°53'0 0.0
2017-Dec-12 07:30N 32°01' W 080°53'0 0.0
2017-Dec-12 07:00N 32°01' W 080°53'0 0.0
2017-Dec-12 06:30N 32°01' W 080°53'0 0.0
2017-Dec-12 06:00N 32°01' W 080°53'0 0.0
2017-Dec-12 05:30N 32°01' W 080°53'0 0.0
2017-Dec-12 05:00N 32°01' W 080°53'0 0.0
2017-Dec-12 04:30N 32°01' W 080°53'0 0.0
2017-Dec-12 04:00N 32°01' W 080°53'0 0.0
2017-Dec-12 03:30N 32°01' W 080°53'0 0.0
2017-Dec-12 03:00N 32°01' W 080°53'0 0.0
2017-Dec-12 02:30N 32°01' W 080°53'0 0.0
2017-Dec-12 02:00N 32°01' W 080°53'0 0.0
2017-Dec-12 01:30N 32°01' W 080°53'0 0.0
2017-Dec-12 01:00N 32°01' W 080°53'0 0.0
2017-Dec-12 00:30N 32°01' W 080°53'0 0.0
2017-Dec-12 00:00N 32°01' W 080°53'0 0.0
2017-Dec-11 23:30N 32°01' W 080°53'0 0.0
2017-Dec-11 23:00N 32°01' W 080°53'0 0.0
2017-Dec-11 22:30N 32°01' W 080°53'0 0.9
2017-Dec-11 22:00N 32°01' W 080°53'0 0.1
2017-Dec-11 21:30N 32°01' W 080°53'1 2.5
2017-Dec-11 21:00N 32°02' W 080°54'2 3.3
2017-Dec-11 20:30N 32°01' W 080°53'4 8.6
2017-Dec-11 20:00N 32°00' W 080°48'5 6.1
2017-Dec-11 19:07N 31°57' W 080°43'1 6.0
2017-Dec-11 18:53N 31°57' W 080°45'0 0.9
2017-Dec-11 18:26N 31°57' W 080°44'0 0.1
2017-Dec-11 17:59N 31°57' W 080°44'3 7.3
2017-Dec-11 17:30N 31°60' W 080°47'510.2
2017-Dec-11 17:00N 32°01' W 080°53'0 0.0
2017-Dec-11 16:30N 32°01' W 080°53'0 0.0
2017-Dec-11 16:00N 32°01' W 080°53'0 0.4
2017-Dec-11 15:31N 32°01' W 080°53'713.8
2017-Dec-11 14:59N 31°58' W 080°45'1 3.0
2017-Dec-11 14:29N 31°56' W 080°45'0 0.8
2017-Dec-11 13:58N 31°57' W 080°45'0 0.8
2017-Dec-11 13:29N 31°56' W 080°44'2 4.5
2017-Dec-11 13:00N 31°58' W 080°47'816.2
2017-Dec-11 12:30N 32°02' W 080°54'2 3.6
2017-Dec-11 12:00N 32°01' W 080°53'0 0.0
2017-Dec-11 11:30N 32°01' W 080°53'0 0.0
2017-Dec-11 11:00N 32°01' W 080°53'0 0.0
2017-Dec-11 10:30N 32°01' W 080°53'0 0.0
2017-Dec-11 10:00N 32°01' W 080°53'0 0.0
2017-Dec-11 09:30N 32°01' W 080°53'0 0.0
2017-Dec-11 09:00N 32°01' W 080°53'0 0.0
2017-Dec-11 08:30N 32°01' W 080°53'0 0.0
2017-Dec-11 08:00N 32°01' W 080°53'0 0.0
2017-Dec-11 07:30N 32°01' W 080°53'0 0.0
2017-Dec-11 07:00N 32°01' W 080°53'0 0.0
2017-Dec-11 06:30N 32°01' W 080°53'0 0.0
2017-Dec-11 06:00N 32°01' W 080°53'0 0.0
2017-Dec-11 05:30N 32°01' W 080°53'0 0.0
2017-Dec-11 05:00N 32°01' W 080°53'0 0.0
2017-Dec-11 04:30N 32°01' W 080°53'0 0.0
2017-Dec-11 04:00N 32°01' W 080°53'0 0.0
2017-Dec-11 03:30N 32°01' W 080°53'0 0.0
2017-Dec-11 03:00N 32°01' W 080°53'0 0.0
2017-Dec-11 02:30N 32°01' W 080°53'0 0.0
2017-Dec-11 02:00N 32°01' W 080°53'0 0.0
2017-Dec-11 01:30N 32°01' W 080°53'0 0.0
2017-Dec-11 01:00N 32°01' W 080°53'0 0.0
2017-Dec-11 00:30N 32°01' W 080°53'0 0.3
2017-Dec-11 00:00N 32°01' W 080°53'612.0
2017-Dec-10 23:30N 32°05' W 080°59'2 3.5
2017-Dec-10 23:00N 32°04' W 080°57'4 8.7
2017-Dec-10 22:30N 32°01' W 080°53'0 0.0
2017-Dec-10 22:00N 32°01' W 080°53'2 3.8
2017-Dec-10 21:30N 32°02' W 080°51'10 3.3
2017-Dec-10 18:22N 31°57' W 080°40'411.8
2017-Dec-10 18:00N 31°59' W 080°45'714.2
2017-Dec-10 17:30N 32°01' W 080°53'0 0.5
2017-Dec-10 17:00N 32°01' W 080°53'2 3.4
2017-Dec-10 16:30N 32°02' W 080°54'0 0.1
2017-Dec-10 16:00N 32°02' W 080°54'0 0.2
2017-Dec-10 15:30N 32°02' W 080°54'0 0.0
2017-Dec-10 15:00N 32°02' W 080°54'0 0.1
2017-Dec-10 14:30N 32°02' W 080°54'0 0.1
2017-Dec-10 14:00N 32°02' W 080°54'0 0.0
2017-Dec-10 13:30N 32°02' W 080°54'0 0.3
2017-Dec-10 13:00N 32°02' W 080°54'0 0.0
2017-Dec-10 12:30N 32°02' W 080°54'2 3.6
2017-Dec-10 12:00N 32°01' W 080°53'0 0.0
2017-Dec-10 11:30N 32°01' W 080°53'0 0.0
2017-Dec-10 11:00N 32°01' W 080°53'0 0.0
2017-Dec-10 10:30N 32°01' W 080°53'0 0.0
2017-Dec-10 10:00N 32°01' W 080°53'0 0.0
2017-Dec-10 09:30N 32°01' W 080°53'0 0.0
2017-Dec-10 09:00N 32°01' W 080°53'0 0.0
2017-Dec-10 08:30N 32°01' W 080°53'0 0.0
2017-Dec-10 08:00N 32°01' W 080°53'0 0.0
2017-Dec-10 07:30N 32°01' W 080°53'0 0.0
2017-Dec-10 07:00N 32°01' W 080°53'0 0.0
2017-Dec-10 06:30N 32°01' W 080°53'0 0.0
2017-Dec-10 06:00N 32°01' W 080°53'0 0.0
2017-Dec-10 05:30N 32°01' W 080°53'0 0.0
2017-Dec-10 05:00N 32°01' W 080°53'0 0.0
2017-Dec-10 04:30N 32°01' W 080°53'0 0.0
2017-Dec-10 04:00N 32°01' W 080°53'0 0.0
2017-Dec-10 03:30N 32°01' W 080°53'0 0.0
2017-Dec-10 03:00N 32°01' W 080°53'0 0.0
2017-Dec-10 02:30N 32°01' W 080°53'0 0.0
2017-Dec-10 02:00N 32°01' W 080°53'0 0.0
2017-Dec-10 01:28N 32°01' W 080°53'0 0.0
2017-Dec-10 01:00N 32°01' W 080°53'0 0.0
2017-Dec-10 00:30N 32°01' W 080°53'0 0.0
2017-Dec-10 00:00N 32°01' W 080°53'0 0.0
2017-Dec-09 23:30N 32°01' W 080°53'0 0.0
2017-Dec-09 23:00N 32°01' W 080°53'0 0.0
2017-Dec-09 22:30N 32°01' W 080°53'0 0.0
2017-Dec-09 22:00N 32°01' W 080°53'2 3.5
2017-Dec-09 21:30N 32°02' W 080°54'0 0.1
2017-Dec-09 21:00N 32°02' W 080°54'0 0.0
2017-Dec-09 20:30N 32°02' W 080°54'0 0.0
2017-Dec-09 20:00N 32°02' W 080°54'0 0.0
2017-Dec-09 19:30N 32°02' W 080°54'0 0.0
2017-Dec-09 19:00N 32°02' W 080°54'0 0.0
2017-Dec-09 18:30N 32°02' W 080°54'0 0.0
2017-Dec-09 18:00N 32°02' W 080°54'0 0.2
2017-Dec-09 17:30N 32°02' W 080°54'0 0.0
2017-Dec-09 17:00N 32°02' W 080°54'0 0.2
2017-Dec-09 16:30N 32°02' W 080°54'0 0.0
2017-Dec-09 16:00N 32°02' W 080°54'3 5.1
2017-Dec-09 15:30N 32°02' W 080°51'2 3.3
2017-Dec-09 15:00N 32°01' W 080°53'0 0.0
2017-Dec-09 14:30N 32°01' W 080°53'0 0.0
2017-Dec-09 14:00N 32°01' W 080°53'0 0.0
2017-Dec-09 13:30N 32°01' W 080°53'0 0.1
2017-Dec-09 13:00N 32°01' W 080°53'1 2.4
2017-Dec-09 12:30N 32°02' W 080°53'1 2.5
2017-Dec-09 12:00N 32°01' W 080°53'0 0.0
2017-Dec-09 11:30N 32°01' W 080°53'0 0.0
2017-Dec-09 11:00N 32°01' W 080°53'0 0.0
2017-Dec-09 10:30N 32°01' W 080°53'0 0.0
2017-Dec-09 10:00N 32°01' W 080°53'0 0.0
2017-Dec-09 09:30N 32°01' W 080°53'0 0.0
2017-Dec-09 09:00N 32°01' W 080°53'0 0.0
2017-Dec-09 08:30N 32°01' W 080°53'0 0.0
2017-Dec-09 08:00N 32°01' W 080°53'0 0.0
2017-Dec-09 07:30N 32°01' W 080°53'0 0.0
2017-Dec-09 07:00N 32°01' W 080°53'0 0.0
2017-Dec-09 06:30N 32°01' W 080°53'0 0.0
2017-Dec-09 06:00N 32°01' W 080°53'0 0.0
2017-Dec-09 05:30N 32°01' W 080°53'0 0.0
2017-Dec-09 05:00N 32°01' W 080°53'0 0.0
2017-Dec-09 04:30N 32°01' W 080°53'0 0.0
2017-Dec-09 04:00N 32°01' W 080°53'0 0.0
2017-Dec-09 03:30N 32°01' W 080°53'0 0.0
2017-Dec-09 03:00N 32°01' W 080°53'0 0.0
2017-Dec-09 02:30N 32°01' W 080°53'0 0.0
2017-Dec-09 02:00N 32°01' W 080°53'0 0.0
2017-Dec-09 01:30N 32°01' W 080°53'0 0.0
2017-Dec-09 01:00N 32°01' W 080°53'0 0.0
2017-Dec-09 00:30N 32°01' W 080°53'0 0.0
2017-Dec-09 00:00N 32°01' W 080°53'0 0.0
2017-Dec-08 23:30N 32°01' W 080°53'0 0.0
2017-Dec-08 23:00N 32°01' W 080°53'0 0.0
2017-Dec-08 22:30N 32°01' W 080°53'0 0.0
2017-Dec-08 22:01N 32°01' W 080°53'1 2.5
2017-Dec-08 21:30N 32°02' W 080°53'1 2.7
2017-Dec-08 21:00N 32°02' W 080°54'0 0.1
2017-Dec-08 20:30N 32°02' W 080°54'0 0.2
2017-Dec-08 20:00N 32°02' W 080°54'2 4.6
2017-Dec-08 19:30N 32°01' W 080°52'1 2.3
2017-Dec-08 19:00N 32°01' W 080°53'0 0.0
2017-Dec-08 18:30N 32°01' W 080°53'0 0.2
2017-Dec-08 18:00N 32°01' W 080°53'1 2.9
2017-Dec-08 17:30N 32°02' W 080°51'3 5.1
2017-Dec-08 17:00N 32°02' W 080°54'0 0.1
2017-Dec-08 16:30N 32°02' W 080°54'0 0.2
2017-Dec-08 16:00N 32°02' W 080°54'3 5.1
2017-Dec-08 15:30N 32°02' W 080°51'2 3.8
2017-Dec-08 15:00N 32°01' W 080°53'0 0.0
2017-Dec-08 14:30N 32°01' W 080°53'0 0.0
2017-Dec-08 14:00N 32°01' W 080°53'0 0.0
2017-Dec-08 13:30N 32°01' W 080°53'0 0.0
2017-Dec-08 13:00N 32°01' W 080°53'0 0.0
2017-Dec-08 12:30N 32°01' W 080°53'0 0.0
2017-Dec-08 12:00N 32°01' W 080°53'0 0.0
2017-Dec-08 11:30N 32°01' W 080°53'0 0.0
2017-Dec-08 11:00N 32°01' W 080°53'0 0.0
2017-Dec-08 10:30N 32°01' W 080°53'0 0.0
2017-Dec-08 10:01N 32°01' W 080°53'0 0.0
2017-Dec-08 09:30N 32°01' W 080°53'0 0.0
2017-Dec-08 09:00N 32°01' W 080°53'0 0.0
2017-Dec-08 08:30N 32°01' W 080°53'0 0.0
2017-Dec-08 08:00N 32°01' W 080°53'0 0.0
2017-Dec-08 07:30N 32°01' W 080°53'0 0.0
2017-Dec-08 07:00N 32°01' W 080°53'0 0.0
2017-Dec-08 06:31N 32°01' W 080°53'0 0.0
2017-Dec-08 06:01N 32°01' W 080°53'0 0.0
2017-Dec-08 05:30N 32°01' W 080°53'0 0.0
2017-Dec-08 05:00N 32°01' W 080°53'0 0.0
2017-Dec-08 04:30N 32°01' W 080°53'0 0.0
2017-Dec-08 04:00N 32°01' W 080°53'0 0.0
2017-Dec-08 03:30N 32°01' W 080°53'0 0.0
2017-Dec-08 03:00N 32°01' W 080°53'  
Track history (hours):
 
Tides and Currents Weather Stations Pressure Air Temp Water Temp Dewpoint Dewpoint Depression Visibility Wind Speed Wind Dir Waves Ship Positions

Pearl River

Owner: Great Lakes Dredge & Dock Company, LLC., Oak Brook, IL. More information available from US FCC via Universal Licensing System and Coast Guard Vessel Documentation Center.

Last reported at 2017-Dec-18 03:00 UTC. Time now 2017-Dec-18 03:24 UTC.
Position N 32°01' W 080°53'.

MMSI: 367187120.

Date/timePositionNaut miles runAvg speedWind from/ knotsBaromVisibWave heightAir tempDewpointWater temp
2017-Dec-18 03:00N 32°01' W 080°53'0 0.0
2017-Dec-18 02:30N 32°01' W 080°53'0 0.0
2017-Dec-18 02:01N 32°01' W 080°53'0 0.0
2017-Dec-18 01:31N 32°01' W 080°53'0 0.0
2017-Dec-18 01:00N 32°01' W 080°53'0 0.0
2017-Dec-18 00:31N 32°01' W 080°53'0 0.0
2017-Dec-18 00:01N 32°01' W 080°53'0 0.0
2017-Dec-17 23:30N 32°01' W 080°53'0 0.0
2017-Dec-17 23:00N 32°01' W 080°53'0 0.0
2017-Dec-17 22:31N 32°01' W 080°53'0 0.0
2017-Dec-17 22:00N 32°01' W 080°53'0 0.0
2017-Dec-17 21:30N 32°01' W 080°53'0 0.0
2017-Dec-17 21:00N 32°01' W 080°53'0 0.0
2017-Dec-17 20:30N 32°01' W 080°53'0 0.0
2017-Dec-17 20:00N 32°01' W 080°53'4 8.5
2017-Dec-17 19:30N 32°00' W 080°48'3 5.3
2017-Dec-17 18:59N 31°59' W 080°45'3 6.7
2017-Dec-17 18:30N 31°57' W 080°43'3 1.2
2017-Dec-17 16:19N 31°57' W 080°40'1 1.8
2017-Dec-17 15:57N 31°57' W 080°41'4 8.8
2017-Dec-17 15:30N 31°59' W 080°45'1 0.6
2017-Dec-17 14:30N 31°58' W 080°44'0 0.4
2017-Dec-17 13:54N 31°58' W 080°45'1 2.3
2017-Dec-17 13:31N 31°59' W 080°46'0 0.1
2017-Dec-17 13:00N 31°59' W 080°46'611.5
2017-Dec-17 12:30N 32°02' W 080°51'2 3.4
2017-Dec-17 12:00N 32°01' W 080°53'0 0.0
2017-Dec-17 11:30N 32°01' W 080°53'0 0.0
2017-Dec-17 11:00N 32°01' W 080°53'0 0.0
2017-Dec-17 10:31N 32°01' W 080°53'0 0.0
2017-Dec-17 10:01N 32°01' W 080°53'0 0.0
2017-Dec-17 09:30N 32°01' W 080°53'0 0.0
2017-Dec-17 09:01N 32°01' W 080°53'0 0.0
2017-Dec-17 08:30N 32°01' W 080°53'0 0.0
2017-Dec-17 08:00N 32°01' W 080°53'0 0.0
2017-Dec-17 07:30N 32°01' W 080°53'0 0.0
2017-Dec-17 07:01N 32°01' W 080°53'0 0.0
2017-Dec-17 06:30N 32°01' W 080°53'0 0.0
2017-Dec-17 06:00N 32°01' W 080°53'0 0.0
2017-Dec-17 05:30N 32°01' W 080°53'0 0.0
2017-Dec-17 05:01N 32°01' W 080°53'0 0.0
2017-Dec-17 04:31N 32°01' W 080°53'0 0.0
2017-Dec-17 04:01N 32°01' W 080°53'0 0.0
2017-Dec-17 03:30N 32°01' W 080°53'0 0.0
2017-Dec-17 03:00N 32°01' W 080°53'0 0.0
2017-Dec-17 02:30N 32°01' W 080°53'0 0.0
2017-Dec-17 02:00N 32°01' W 080°53'0 0.0
2017-Dec-17 01:30N 32°01' W 080°53'0 0.0
2017-Dec-17 01:01N 32°01' W 080°53'0 0.0
2017-Dec-17 00:30N 32°01' W 080°53'0 0.0
2017-Dec-17 00:01N 32°01' W 080°53'0 0.0
2017-Dec-16 22:55N 32°01' W 080°53'0 0.0
2017-Dec-16 22:30N 32°01' W 080°53'0 0.0
2017-Dec-16 22:00N 32°01' W 080°53'0 0.0
2017-Dec-16 21:30N 32°01' W 080°53'0 0.0
2017-Dec-16 21:00N 32°01' W 080°53'0 0.0
2017-Dec-16 20:30N 32°01' W 080°53'0 0.0
2017-Dec-16 20:00N 32°01' W 080°53'0 0.0
2017-Dec-16 19:30N 32°01' W 080°53'0 0.0
2017-Dec-16 19:00N 32°01' W 080°53'0 0.0
2017-Dec-16 18:30N 32°01' W 080°53'2 3.6
2017-Dec-16 18:00N 32°02' W 080°51'714.5
2017-Dec-16 17:30N 31°57' W 080°45'0 0.7
2017-Dec-16 16:58N 31°57' W 080°45'0 0.5
2017-Dec-16 16:30N 31°56' W 080°45'3 6.9
2017-Dec-16 16:00N 31°59' W 080°47'713.5
2017-Dec-16 15:31N 32°02' W 080°54'0 0.1
2017-Dec-16 15:01N 32°02' W 080°54'3 5.6
2017-Dec-16 14:30N 32°02' W 080°51'2 4.3
2017-Dec-16 14:00N 32°01' W 080°53'0 0.0
2017-Dec-16 13:30N 32°01' W 080°53'0 0.1
2017-Dec-16 13:00N 32°01' W 080°53'0 0.0
2017-Dec-16 12:00N 32°01' W 080°53'0 0.0
2017-Dec-16 11:31N 32°01' W 080°53'0 0.0
2017-Dec-16 11:01N 32°01' W 080°53'0 0.0
2017-Dec-16 10:31N 32°01' W 080°53'0 0.0
2017-Dec-16 10:00N 32°01' W 080°53'0 0.0
2017-Dec-16 09:30N 32°01' W 080°53'0 0.0
2017-Dec-16 09:01N 32°01' W 080°53'0 0.0
2017-Dec-16 08:31N 32°01' W 080°53'0 0.0
2017-Dec-16 08:01N 32°01' W 080°53'0 0.0
2017-Dec-16 07:31N 32°01' W 080°53'0 0.0
2017-Dec-16 07:01N 32°01' W 080°53'0 0.0
2017-Dec-16 06:31N 32°01' W 080°53'0 0.0
2017-Dec-16 06:01N 32°01' W 080°53'0 0.0
2017-Dec-16 05:31N 32°01' W 080°53'0 0.0
2017-Dec-16 05:01N 32°01' W 080°53'0 0.0
2017-Dec-16 04:31N 32°01' W 080°53'0 0.0
2017-Dec-16 04:01N 32°01' W 080°53'0 0.0
2017-Dec-16 03:31N 32°01' W 080°53'0 0.0
2017-Dec-16 03:01N 32°01' W 080°53'0 0.0
2017-Dec-16 02:30N 32°01' W 080°53'0 0.0
2017-Dec-16 02:00N 32°01' W 080°53'0 0.0
2017-Dec-16 01:30N 32°01' W 080°53'0 0.0
2017-Dec-16 01:00N 32°01' W 080°53'0 0.0
2017-Dec-16 00:31N 32°01' W 080°53'0 0.0
2017-Dec-16 00:01N 32°01' W 080°53'0 0.0
2017-Dec-15 23:31N 32°01' W 080°53'0 0.0
2017-Dec-15 23:00N 32°01' W 080°53'0 0.0
2017-Dec-15 22:30N 32°01' W 080°53'0 0.1
2017-Dec-15 21:58N 32°01' W 080°53'0 0.1
2017-Dec-15 21:30N 32°01' W 080°53'5 9.8
2017-Dec-15 21:00N 31°60' W 080°47'5 1.7
2017-Dec-15 17:57N 31°58' W 080°42'715.2
2017-Dec-15 17:30N 32°01' W 080°48'3 5.5
2017-Dec-15 17:00N 32°02' W 080°51'0 0.0
2017-Dec-15 16:30N 32°02' W 080°51'0 1.0
2017-Dec-15 16:00N 32°02' W 080°52'0 0.7
2017-Dec-15 15:30N 32°02' W 080°51'0 0.3
2017-Dec-15 15:00N 32°02' W 080°52'1 2.6
2017-Dec-15 14:30N 32°02' W 080°50'0 0.4
2017-Dec-15 14:00N 32°02' W 080°50'1 2.4
2017-Dec-15 13:29N 32°02' W 080°51'1 2.4
2017-Dec-15 13:00N 32°02' W 080°53'1 2.6
2017-Dec-15 12:30N 32°01' W 080°53'0 0.0
2017-Dec-15 12:00N 32°01' W 080°53'0 0.0
2017-Dec-15 11:30N 32°01' W 080°53'0 0.0
2017-Dec-15 11:00N 32°01' W 080°53'0 0.0
2017-Dec-15 10:30N 32°01' W 080°53'0 0.0
2017-Dec-15 10:00N 32°01' W 080°53'0 0.0
2017-Dec-15 09:30N 32°01' W 080°53'0 0.0
2017-Dec-15 09:00N 32°01' W 080°53'0 0.0
2017-Dec-15 08:30N 32°01' W 080°53'0 0.0
2017-Dec-15 08:00N 32°01' W 080°53'0 0.0
2017-Dec-15 07:30N 32°01' W 080°53'0 0.0
2017-Dec-15 07:00N 32°01' W 080°53'0 0.0
2017-Dec-15 06:30N 32°01' W 080°53'0 0.0
2017-Dec-15 06:00N 32°01' W 080°53'0 0.0
2017-Dec-15 05:30N 32°01' W 080°53'0 0.0
2017-Dec-15 05:00N 32°01' W 080°53'0 0.0
2017-Dec-15 04:30N 32°01' W 080°53'0 0.0
2017-Dec-15 04:00N 32°01' W 080°53'0 0.0
2017-Dec-15 02:30N 32°01' W 080°53'0 0.0
2017-Dec-15 01:00N 32°01' W 080°53'0 0.0
2017-Dec-15 00:30N 32°01' W 080°53'1 0.2
2017-Dec-14 18:31N 32°01' W 080°52'1 2.2
2017-Dec-14 18:00N 32°01' W 080°53'0 0.0
2017-Dec-14 17:29N 32°01' W 080°53'1 1.2
2017-Dec-14 17:00N 32°01' W 080°52'612.1
2017-Dec-14 16:29N 31°59' W 080°45'1 1.9
2017-Dec-14 15:54N 31°58' W 080°44'1 0.9
2017-Dec-14 15:00N 31°59' W 080°45'0 0.3
2017-Dec-14 14:30N 31°59' W 080°45'0 0.5
2017-Dec-14 13:35N 31°59' W 080°44'0 1.5
2017-Dec-14 13:30N 31°59' W 080°45'0 1.0
2017-Dec-14 13:00N 31°59' W 080°45'5 9.7
2017-Dec-14 12:30N 32°02' W 080°49'3 6.0
2017-Dec-14 12:00N 32°01' W 080°53'2 3.4
2017-Dec-14 11:30N 32°02' W 080°54'2 3.9
2017-Dec-14 11:00N 32°01' W 080°52'1 1.0
2017-Dec-14 10:30N 32°01' W 080°53'0 0.0
2017-Dec-14 10:00N 32°01' W 080°53'0 0.0
2017-Dec-14 09:30N 32°01' W 080°53'0 0.0
2017-Dec-14 09:00N 32°01' W 080°53'0 0.0
2017-Dec-14 08:30N 32°01' W 080°53'0 0.0
2017-Dec-14 08:00N 32°01' W 080°53'0 0.0
2017-Dec-14 07:30N 32°01' W 080°53'0 0.0
2017-Dec-14 07:00N 32°01' W 080°53'0 0.0
2017-Dec-14 06:30N 32°01' W 080°53'0 0.0
2017-Dec-14 06:00N 32°01' W 080°53'0 0.0
2017-Dec-14 05:30N 32°01' W 080°53'0 0.0
2017-Dec-14 05:00N 32°01' W 080°53'0 0.0
2017-Dec-14 04:30N 32°01' W 080°53'0 0.0
2017-Dec-14 04:00N 32°01' W 080°53'0 0.0
2017-Dec-14 03:30N 32°01' W 080°53'0 0.0
2017-Dec-14 03:00N 32°01' W 080°53'0 0.0
2017-Dec-14 02:30N 32°01' W 080°53'0 0.0
2017-Dec-14 02:00N 32°01' W 080°53'0 0.0
2017-Dec-14 01:30N 32°01' W 080°53'0 0.0
2017-Dec-14 01:00N 32°01' W 080°53'0 0.0
2017-Dec-14 00:30N 32°01' W 080°53'0 0.0
2017-Dec-14 00:00N 32°01' W 080°53'0 0.0
2017-Dec-13 23:30N 32°01' W 080°53'0 0.0
2017-Dec-13 23:00N 32°01' W 080°53'0 0.0
2017-Dec-13 22:30N 32°01' W 080°53'0 0.0
2017-Dec-13 22:00N 32°01' W 080°53'2 4.2
2017-Dec-13 21:30N 32°02' W 080°51'6 9.1
2017-Dec-13 20:52N 31°59' W 080°45'3 0.9
2017-Dec-13 17:43N 31°58' W 080°42'416.8
2017-Dec-13 17:30N 31°59' W 080°46'3 5.9
2017-Dec-13 17:00N 32°01' W 080°48'1 1.9
2017-Dec-13 16:29N 32°00' W 080°48'1 1.9
2017-Dec-13 16:00N 32°01' W 080°48'0 0.4
2017-Dec-13 15:30N 32°01' W 080°48'1 1.5
2017-Dec-13 15:00N 32°01' W 080°48'0 0.5
2017-Dec-13 14:30N 32°01' W 080°48'0 0.2
2017-Dec-13 14:00N 32°01' W 080°48'4 8.2
2017-Dec-13 13:30N 32°01' W 080°53'0 0.0
2017-Dec-13 13:01N 32°01' W 080°53'0 0.0
2017-Dec-13 12:31N 32°01' W 080°53'0 0.0
2017-Dec-13 12:00N 32°01' W 080°53'0 0.0
2017-Dec-13 11:30N 32°01' W 080°53'0 0.0
2017-Dec-13 11:00N 32°01' W 080°53'0 0.0
2017-Dec-13 10:30N 32°01' W 080°53'0 0.0
2017-Dec-13 10:00N 32°01' W 080°53'0 0.0
2017-Dec-13 09:30N 32°01' W 080°53'0 0.0
2017-Dec-13 09:00N 32°01' W 080°53'0 0.0
2017-Dec-13 08:30N 32°01' W 080°53'0 0.0
2017-Dec-13 08:00N 32°01' W 080°53'0 0.0
2017-Dec-13 07:30N 32°01' W 080°53'0 0.0
2017-Dec-13 07:00N 32°01' W 080°53'0 0.0
2017-Dec-13 06:30N 32°01' W 080°53'0 0.0
2017-Dec-13 06:00N 32°01' W 080°53'0 0.0
2017-Dec-13 05:30N 32°01' W 080°53'0 0.0
2017-Dec-13 05:00N 32°01' W 080°53'0 0.0
2017-Dec-13 04:30N 32°01' W 080°53'0 0.0
2017-Dec-13 04:00N 32°01' W 080°53'0 0.0
2017-Dec-13 03:30N 32°01' W 080°53'0 0.0
2017-Dec-13 03:00N 32°01' W 080°53'0 0.0
2017-Dec-13 02:30N 32°01' W 080°53'0 0.0
2017-Dec-13 02:00N 32°01' W 080°53'0 0.0
2017-Dec-13 01:30N 32°01' W 080°53'0 0.0
2017-Dec-13 01:00N 32°01' W 080°53'0 0.0
2017-Dec-13 00:30N 32°01' W 080°53'0 0.0
2017-Dec-13 00:00N 32°01' W 080°53'0 0.0
2017-Dec-12 23:30N 32°01' W 080°53'0 0.0
2017-Dec-12 23:00N 32°01' W 080°53'0 0.0
2017-Dec-12 22:30N 32°01' W 080°53'0 0.0
2017-Dec-12 22:00N 32°01' W 080°53'0 0.0
2017-Dec-12 21:31N 32°01' W 080°53'0 0.0
2017-Dec-12 21:01N 32°01' W 080°53'0 0.0
2017-Dec-12 20:31N 32°01' W 080°53'2 3.6
2017-Dec-12 20:00N 32°02' W 080°54'0 0.2
2017-Dec-12 19:30N 32°02' W 080°54'0 0.1
2017-Dec-12 19:00N 32°02' W 080°54'3 5.3
2017-Dec-12 18:31N 32°02' W 080°51'711.1
2017-Dec-12 17:55N 31°57' W 080°46'0 0.3
2017-Dec-12 17:29N 31°57' W 080°47'1 1.0
2017-Dec-12 16:55N 31°56' W 080°47'0 0.3
2017-Dec-12 16:28N 31°56' W 080°46'2 3.2
2017-Dec-12 15:59N 31°56' W 080°45'1 1.2
2017-Dec-12 15:18N 31°56' W 080°46'3 9.2
2017-Dec-12 15:00N 31°59' W 080°47'611.4
2017-Dec-12 14:30N 32°01' W 080°53'0 0.0
2017-Dec-12 14:00N 32°01' W 080°53'1 2.4
2017-Dec-12 13:30N 32°02' W 080°53'1 2.7
2017-Dec-12 13:00N 32°02' W 080°54'2 4.8
2017-Dec-12 12:30N 32°02' W 080°52'2 3.6
2017-Dec-12 12:01N 32°01' W 080°53'0 0.0
2017-Dec-12 11:30N 32°01' W 080°53'0 0.0
2017-Dec-12 11:00N 32°01' W 080°53'0 0.0
2017-Dec-12 10:30N 32°01' W 080°53'0 0.0
2017-Dec-12 10:00N 32°01' W 080°53'0 0.0
2017-Dec-12 09:30N 32°01' W 080°53'0 0.0
2017-Dec-12 09:00N 32°01' W 080°53'0 0.0
2017-Dec-12 08:30N 32°01' W 080°53'0 0.0
2017-Dec-12 08:00N 32°01' W 080°53'0 0.0
2017-Dec-12 07:30N 32°01' W 080°53'0 0.0
2017-Dec-12 07:00N 32°01' W 080°53'0 0.0
2017-Dec-12 06:30N 32°01' W 080°53'0 0.0
2017-Dec-12 06:00N 32°01' W 080°53'0 0.0
2017-Dec-12 05:30N 32°01' W 080°53'0 0.0
2017-Dec-12 05:00N 32°01' W 080°53'0 0.0
2017-Dec-12 04:30N 32°01' W 080°53'0 0.0
2017-Dec-12 04:00N 32°01' W 080°53'0 0.0
2017-Dec-12 03:30N 32°01' W 080°53'0 0.0
2017-Dec-12 03:00N 32°01' W 080°53'0 0.0
2017-Dec-12 02:30N 32°01' W 080°53'0 0.0
2017-Dec-12 02:00N 32°01' W 080°53'0 0.0
2017-Dec-12 01:30N 32°01' W 080°53'0 0.0
2017-Dec-12 01:00N 32°01' W 080°53'0 0.0
2017-Dec-12 00:30N 32°01' W 080°53'0 0.0
2017-Dec-12 00:00N 32°01' W 080°53'0 0.0
2017-Dec-11 23:30N 32°01' W 080°53'0 0.0
2017-Dec-11 23:00N 32°01' W 080°53'0 0.0
2017-Dec-11 22:30N 32°01' W 080°53'0 0.9
2017-Dec-11 22:00N 32°01' W 080°53'0 0.1
2017-Dec-11 21:30N 32°01' W 080°53'1 2.5
2017-Dec-11 21:00N 32°02' W 080°54'2 3.3
2017-Dec-11 20:30N 32°01' W 080°53'4 8.6
2017-Dec-11 20:00N 32°00' W 080°48'5 6.1
2017-Dec-11 19:07N 31°57' W 080°43'1 6.0
2017-Dec-11 18:53N 31°57' W 080°45'0 0.9
2017-Dec-11 18:26N 31°57' W 080°44'0 0.1
2017-Dec-11 17:59N 31°57' W 080°44'3 7.3
2017-Dec-11 17:30N 31°60' W 080°47'510.2
2017-Dec-11 17:00N 32°01' W 080°53'0 0.0
2017-Dec-11 16:30N 32°01' W 080°53'0 0.0
2017-Dec-11 16:00N 32°01' W 080°53'0 0.4
2017-Dec-11 15:31N 32°01' W 080°53'713.8
2017-Dec-11 14:59N 31°58' W 080°45'1 3.0
2017-Dec-11 14:29N 31°56' W 080°45'0 0.8
2017-Dec-11 13:58N 31°57' W 080°45'0 0.8
2017-Dec-11 13:29N 31°56' W 080°44'2 4.5
2017-Dec-11 13:00N 31°58' W 080°47'816.2
2017-Dec-11 12:30N 32°02' W 080°54'2 3.6
2017-Dec-11 12:00N 32°01' W 080°53'0 0.0
2017-Dec-11 11:30N 32°01' W 080°53'0 0.0
2017-Dec-11 11:00N 32°01' W 080°53'0 0.0
2017-Dec-11 10:30N 32°01' W 080°53'0 0.0
2017-Dec-11 10:00N 32°01' W 080°53'0 0.0
2017-Dec-11 09:30N 32°01' W 080°53'0 0.0
2017-Dec-11 09:00N 32°01' W 080°53'0 0.0
2017-Dec-11 08:30N 32°01' W 080°53'0 0.0
2017-Dec-11 08:00N 32°01' W 080°53'0 0.0
2017-Dec-11 07:30N 32°01' W 080°53'0 0.0
2017-Dec-11 07:00N 32°01' W 080°53'0 0.0
2017-Dec-11 06:30N 32°01' W 080°53'0 0.0
2017-Dec-11 06:00N 32°01' W 080°53'0 0.0
2017-Dec-11 05:30N 32°01' W 080°53'0 0.0
2017-Dec-11 05:00N 32°01' W 080°53'0 0.0
2017-Dec-11 04:30N 32°01' W 080°53'0 0.0
2017-Dec-11 04:00N 32°01' W 080°53'0 0.0
2017-Dec-11 03:30N 32°01' W 080°53'0 0.0
2017-Dec-11 03:00N 32°01' W 080°53'0 0.0
2017-Dec-11 02:30N 32°01' W 080°53'0 0.0
2017-Dec-11 02:00N 32°01' W 080°53'0 0.0
2017-Dec-11 01:30N 32°01' W 080°53'0 0.0
2017-Dec-11 01:00N 32°01' W 080°53'0 0.0
2017-Dec-11 00:30N 32°01' W 080°53'0 0.3
2017-Dec-11 00:00N 32°01' W 080°53'612.0
2017-Dec-10 23:30N 32°05' W 080°59'2 3.5
2017-Dec-10 23:00N 32°04' W 080°57'4 8.7
2017-Dec-10 22:30N 32°01' W 080°53'0 0.0
2017-Dec-10 22:00N 32°01' W 080°53'2 3.8
2017-Dec-10 21:30N 32°02' W 080°51'10 3.3
2017-Dec-10 18:22N 31°57' W 080°40'411.8
2017-Dec-10 18:00N 31°59' W 080°45'714.2
2017-Dec-10 17:30N 32°01' W 080°53'0 0.5
2017-Dec-10 17:00N 32°01' W 080°53'2 3.4
2017-Dec-10 16:30N 32°02' W 080°54'0 0.1
2017-Dec-10 16:00N 32°02' W 080°54'0 0.2
2017-Dec-10 15:30N 32°02' W 080°54'0 0.0
2017-Dec-10 15:00N 32°02' W 080°54'0 0.1
2017-Dec-10 14:30N 32°02' W 080°54'0 0.1
2017-Dec-10 14:00N 32°02' W 080°54'0 0.0
2017-Dec-10 13:30N 32°02' W 080°54'0 0.3
2017-Dec-10 13:00N 32°02' W 080°54'0 0.0
2017-Dec-10 12:30N 32°02' W 080°54'2 3.6
2017-Dec-10 12:00N 32°01' W 080°53'0 0.0
2017-Dec-10 11:30N 32°01' W 080°53'0 0.0
2017-Dec-10 11:00N 32°01' W 080°53'0 0.0
2017-Dec-10 10:30N 32°01' W 080°53'0 0.0
2017-Dec-10 10:00N 32°01' W 080°53'0 0.0
2017-Dec-10 09:30N 32°01' W 080°53'0 0.0
2017-Dec-10 09:00N 32°01' W 080°53'0 0.0
2017-Dec-10 08:30N 32°01' W 080°53'0 0.0
2017-Dec-10 08:00N 32°01' W 080°53'0 0.0
2017-Dec-10 07:30N 32°01' W 080°53'0 0.0
2017-Dec-10 07:00N 32°01' W 080°53'0 0.0
2017-Dec-10 06:30N 32°01' W 080°53'0 0.0
2017-Dec-10 06:00N 32°01' W 080°53'0 0.0
2017-Dec-10 05:30N 32°01' W 080°53'0 0.0
2017-Dec-10 05:00N 32°01' W 080°53'0 0.0
2017-Dec-10 04:30N 32°01' W 080°53'0 0.0
2017-Dec-10 04:00N 32°01' W 080°53'0 0.0
2017-Dec-10 03:30N 32°01' W 080°53'0 0.0
2017-Dec-10 03:00N 32°01' W 080°53'0 0.0
2017-Dec-10 02:30N 32°01' W 080°53'0 0.0
2017-Dec-10 02:00N 32°01' W 080°53'0 0.0
2017-Dec-10 01:28N 32°01' W 080°53'0 0.0
2017-Dec-10 01:00N 32°01' W 080°53'0 0.0
2017-Dec-10 00:30N 32°01' W 080°53'0 0.0
2017-Dec-10 00:00N 32°01' W 080°53'0 0.0
2017-Dec-09 23:30N 32°01' W 080°53'0 0.0
2017-Dec-09 23:00N 32°01' W 080°53'0 0.0
2017-Dec-09 22:30N 32°01' W 080°53'0 0.0
2017-Dec-09 22:00N 32°01' W 080°53'2 3.5
2017-Dec-09 21:30N 32°02' W 080°54'0 0.1
2017-Dec-09 21:00N 32°02' W 080°54'0 0.0
2017-Dec-09 20:30N 32°02' W 080°54'0 0.0
2017-Dec-09 20:00N 32°02' W 080°54'0 0.0
2017-Dec-09 19:30N 32°02' W 080°54'0 0.0
2017-Dec-09 19:00N 32°02' W 080°54'0 0.0
2017-Dec-09 18:30N 32°02' W 080°54'0 0.0
2017-Dec-09 18:00N 32°02' W 080°54'0 0.2
2017-Dec-09 17:30N 32°02' W 080°54'0 0.0
2017-Dec-09 17:00N 32°02' W 080°54'0 0.2
2017-Dec-09 16:30N 32°02' W 080°54'0 0.0
2017-Dec-09 16:00N 32°02' W 080°54'3 5.1
2017-Dec-09 15:30N 32°02' W 080°51'2 3.3
2017-Dec-09 15:00N 32°01' W 080°53'0 0.0
2017-Dec-09 14:30N 32°01' W 080°53'0 0.0
2017-Dec-09 14:00N 32°01' W 080°53'0 0.0
2017-Dec-09 13:30N 32°01' W 080°53'0 0.1
2017-Dec-09 13:00N 32°01' W 080°53'1 2.4
2017-Dec-09 12:30N 32°02' W 080°53'1 2.5
2017-Dec-09 12:00N 32°01' W 080°53'0 0.0
2017-Dec-09 11:30N 32°01' W 080°53'0 0.0
2017-Dec-09 11:00N 32°01' W 080°53'0 0.0
2017-Dec-09 10:30N 32°01' W 080°53'0 0.0
2017-Dec-09 10:00N 32°01' W 080°53'0 0.0
2017-Dec-09 09:30N 32°01' W 080°53'0 0.0
2017-Dec-09 09:00N 32°01' W 080°53'0 0.0
2017-Dec-09 08:30N 32°01' W 080°53'0 0.0
2017-Dec-09 08:00N 32°01' W 080°53'0 0.0
2017-Dec-09 07:30N 32°01' W 080°53'0 0.0
2017-Dec-09 07:00N 32°01' W 080°53'0 0.0
2017-Dec-09 06:30N 32°01' W 080°53'0 0.0
2017-Dec-09 06:00N 32°01' W 080°53'0 0.0
2017-Dec-09 05:30N 32°01' W 080°53'0 0.0
2017-Dec-09 05:00N 32°01' W 080°53'0 0.0
2017-Dec-09 04:30N 32°01' W 080°53'0 0.0
2017-Dec-09 04:00N 32°01' W 080°53'0 0.0
2017-Dec-09 03:30N 32°01' W 080°53'0 0.0
2017-Dec-09 03:00N 32°01' W 080°53'0 0.0
2017-Dec-09 02:30N 32°01' W 080°53'0 0.0
2017-Dec-09 02:00N 32°01' W 080°53'0 0.0
2017-Dec-09 01:30N 32°01' W 080°53'0 0.0
2017-Dec-09 01:00N 32°01' W 080°53'0 0.0
2017-Dec-09 00:30N 32°01' W 080°53'0 0.0
2017-Dec-09 00:00N 32°01' W 080°53'0 0.0
2017-Dec-08 23:30N 32°01' W 080°53'0 0.0
2017-Dec-08 23:00N 32°01' W 080°53'0 0.0
2017-Dec-08 22:30N 32°01' W 080°53'0 0.0
2017-Dec-08 22:01N 32°01' W 080°53'1 2.5
2017-Dec-08 21:30N 32°02' W 080°53'1 2.7
2017-Dec-08 21:00N 32°02' W 080°54'0 0.1
2017-Dec-08 20:30N 32°02' W 080°54'0 0.2
2017-Dec-08 20:00N 32°02' W 080°54'2 4.6
2017-Dec-08 19:30N 32°01' W 080°52'1 2.3
2017-Dec-08 19:00N 32°01' W 080°53'0 0.0
2017-Dec-08 18:30N 32°01' W 080°53'0 0.2
2017-Dec-08 18:00N 32°01' W 080°53'1 2.9
2017-Dec-08 17:30N 32°02' W 080°51'3 5.1
2017-Dec-08 17:00N 32°02' W 080°54'0 0.1
2017-Dec-08 16:30N 32°02' W 080°54'0 0.2
2017-Dec-08 16:00N 32°02' W 080°54'3 5.1
2017-Dec-08 15:30N 32°02' W 080°51'2 3.8
2017-Dec-08 15:00N 32°01' W 080°53'0 0.0
2017-Dec-08 14:30N 32°01' W 080°53'0 0.0
2017-Dec-08 14:00N 32°01' W 080°53'0 0.0
2017-Dec-08 13:30N 32°01' W 080°53'0 0.0
2017-Dec-08 13:00N 32°01' W 080°53'0 0.0
2017-Dec-08 12:30N 32°01' W 080°53'0 0.0
2017-Dec-08 12:00N 32°01' W 080°53'0 0.0
2017-Dec-08 11:30N 32°01' W 080°53'0 0.0
2017-Dec-08 11:00N 32°01' W 080°53'0 0.0
2017-Dec-08 10:30N 32°01' W 080°53'0 0.0
2017-Dec-08 10:01N 32°01' W 080°53'0 0.0
2017-Dec-08 09:30N 32°01' W 080°53'0 0.0
2017-Dec-08 09:00N 32°01' W 080°53'0 0.0
2017-Dec-08 08:30N 32°01' W 080°53'0 0.0
2017-Dec-08 08:00N 32°01' W 080°53'0 0.0
2017-Dec-08 07:30N 32°01' W 080°53'0 0.0
2017-Dec-08 07:00N 32°01' W 080°53'0 0.0
2017-Dec-08 06:31N 32°01' W 080°53'0 0.0
2017-Dec-08 06:01N 32°01' W 080°53'0 0.0
2017-Dec-08 05:30N 32°01' W 080°53'0 0.0
2017-Dec-08 05:00N 32°01' W 080°53'0 0.0
2017-Dec-08 04:30N 32°01' W 080°53'0 0.0
2017-Dec-08 04:00N 32°01' W 080°53'0 0.0
2017-Dec-08 03:30N 32°01' W 080°53'0 0.0
2017-Dec-08 03:00N 32°01' W 080°53'  

Dump ship's entire track history